sensor_id;sensor_type;location;lat;lon;timestamp;P1;durP1;ratioP1;P2;durP2;ratioP2
12762;SDS011;6445;52.490;13.378;2023-10-19T00:00:35;18.25;;;12.25;;
12762;SDS011;6445;52.490;13.378;2023-10-19T00:03:04;18.45;;;12.32;;
12762;SDS011;6445;52.490;13.378;2023-10-19T00:05:31;17.17;;;11.80;;
12762;SDS011;6445;52.490;13.378;2023-10-19T00:08:00;17.20;;;11.73;;
12762;SDS011;6445;52.490;13.378;2023-10-19T00:10:30;17.05;;;13.10;;
12762;SDS011;6445;52.490;13.378;2023-10-19T00:13:00;20.40;;;11.63;;
12762;SDS011;6445;52.490;13.378;2023-10-19T00:15:28;20.23;;;12.30;;
12762;SDS011;6445;52.490;13.378;2023-10-19T00:17:57;18.65;;;12.32;;
12762;SDS011;6445;52.490;13.378;2023-10-19T00:20:24;20.65;;;12.93;;
12762;SDS011;6445;52.490;13.378;2023-10-19T00:23:00;22.33;;;12.65;;
12762;SDS011;6445;52.490;13.378;2023-10-19T00:25:30;19.17;;;13.05;;
12762;SDS011;6445;52.490;13.378;2023-10-19T00:27:56;19.63;;;13.07;;
12762;SDS011;6445;52.490;13.378;2023-10-19T00:30:21;20.20;;;12.10;;
12762;SDS011;6445;52.490;13.378;2023-10-19T00:32:49;22.23;;;12.70;;
12762;SDS011;6445;52.490;13.378;2023-10-19T00:35:15;19.75;;;12.75;;
12762;SDS011;6445;52.490;13.378;2023-10-19T00:37:59;18.13;;;12.27;;
12762;SDS011;6445;52.490;13.378;2023-10-19T00:40:49;16.70;;;11.40;;
12762;SDS011;6445;52.490;13.378;2023-10-19T00:43:25;21.48;;;12.07;;
12762;SDS011;6445;52.490;13.378;2023-10-19T00:45:51;19.17;;;12.18;;
12762;SDS011;6445;52.490;13.378;2023-10-19T00:48:17;18.77;;;12.35;;
12762;SDS011;6445;52.490;13.378;2023-10-19T00:50:42;23.70;;;12.45;;
12762;SDS011;6445;52.490;13.378;2023-10-19T00:53:09;17.00;;;12.27;;
12762;SDS011;6445;52.490;13.378;2023-10-19T00:55:37;18.05;;;13.15;;
12762;SDS011;6445;52.490;13.378;2023-10-19T00:58:03;18.58;;;12.00;;
12762;SDS011;6445;52.490;13.378;2023-10-19T01:00:34;18.65;;;12.25;;
12762;SDS011;6445;52.490;13.378;2023-10-19T01:03:08;17.92;;;12.40;;
12762;SDS011;6445;52.490;13.378;2023-10-19T01:05:35;18.67;;;12.73;;
12762;SDS011;6445;52.490;13.378;2023-10-19T01:08:03;18.35;;;12.20;;
12762;SDS011;6445;52.490;13.378;2023-10-19T01:10:39;18.08;;;12.13;;
12762;SDS011;6445;52.490;13.378;2023-10-19T01:13:05;18.13;;;12.23;;
12762;SDS011;6445;52.490;13.378;2023-10-19T01:15:30;19.88;;;12.98;;
12762;SDS011;6445;52.490;13.378;2023-10-19T01:18:01;18.52;;;12.57;;
12762;SDS011;6445;52.490;13.378;2023-10-19T01:20:31;20.88;;;12.45;;
12762;SDS011;6445;52.490;13.378;2023-10-19T01:22:58;19.88;;;13.20;;
12762;SDS011;6445;52.490;13.378;2023-10-19T01:28:22;20.63;;;12.63;;
12762;SDS011;6445;52.490;13.378;2023-10-19T01:31:08;21.42;;;13.40;;
12762;SDS011;6445;52.490;13.378;2023-10-19T01:33:39;18.55;;;12.48;;
12762;SDS011;6445;52.490;13.378;2023-10-19T01:36:05;24.50;;;14.15;;
12762;SDS011;6445;52.490;13.378;2023-10-19T01:38:36;22.65;;;13.40;;
12762;SDS011;6445;52.490;13.378;2023-10-19T01:41:02;20.33;;;12.63;;
12762;SDS011;6445;52.490;13.378;2023-10-19T01:43:47;21.77;;;13.13;;
12762;SDS011;6445;52.490;13.378;2023-10-19T01:46:16;21.20;;;13.15;;
12762;SDS011;6445;52.490;13.378;2023-10-19T01:48:50;21.25;;;13.13;;
12762;SDS011;6445;52.490;13.378;2023-10-19T01:51:20;21.50;;;14.05;;
12762;SDS011;6445;52.490;13.378;2023-10-19T01:53:46;21.40;;;13.32;;
12762;SDS011;6445;52.490;13.378;2023-10-19T01:56:12;23.30;;;13.50;;
12762;SDS011;6445;52.490;13.378;2023-10-19T01:58:39;21.17;;;12.95;;
12762;SDS011;6445;52.490;13.378;2023-10-19T02:01:06;22.05;;;13.85;;
12762;SDS011;6445;52.490;13.378;2023-10-19T02:03:52;19.88;;;13.80;;
12762;SDS011;6445;52.490;13.378;2023-10-19T02:06:23;21.02;;;13.43;;
12762;SDS011;6445;52.490;13.378;2023-10-19T02:09:00;20.83;;;13.13;;
12762;SDS011;6445;52.490;13.378;2023-10-19T02:11:49;18.30;;;13.07;;
12762;SDS011;6445;52.490;13.378;2023-10-19T02:14:18;22.45;;;13.98;;
12762;SDS011;6445;52.490;13.378;2023-10-19T02:16:44;22.90;;;14.65;;
12762;SDS011;6445;52.490;13.378;2023-10-19T02:19:17;21.48;;;14.20;;
12762;SDS011;6445;52.490;13.378;2023-10-19T02:21:45;23.15;;;13.15;;
12762;SDS011;6445;52.490;13.378;2023-10-19T02:24:13;23.02;;;14.43;;
12762;SDS011;6445;52.490;13.378;2023-10-19T02:26:42;22.00;;;14.48;;
12762;SDS011;6445;52.490;13.378;2023-10-19T02:29:08;21.80;;;13.73;;
12762;SDS011;6445;52.490;13.378;2023-10-19T02:31:34;23.73;;;14.20;;
12762;SDS011;6445;52.490;13.378;2023-10-19T02:34:03;25.23;;;14.05;;
12762;SDS011;6445;52.490;13.378;2023-10-19T02:36:29;23.17;;;15.40;;
12762;SDS011;6445;52.490;13.378;2023-10-19T02:38:56;22.38;;;14.63;;
12762;SDS011;6445;52.490;13.378;2023-10-19T02:41:26;26.20;;;14.63;;
12762;SDS011;6445;52.490;13.378;2023-10-19T02:43:52;22.92;;;14.85;;
12762;SDS011;6445;52.490;13.378;2023-10-19T02:46:27;24.15;;;15.02;;
12762;SDS011;6445;52.490;13.378;2023-10-19T02:48:53;22.60;;;14.25;;
12762;SDS011;6445;52.490;13.378;2023-10-19T02:51:19;28.85;;;15.52;;
12762;SDS011;6445;52.490;13.378;2023-10-19T02:53:44;22.17;;;14.32;;
12762;SDS011;6445;52.490;13.378;2023-10-19T02:56:13;25.88;;;15.05;;
12762;SDS011;6445;52.490;13.378;2023-10-19T02:58:44;22.98;;;14.93;;
12762;SDS011;6445;52.490;13.378;2023-10-19T03:01:17;24.50;;;14.82;;
12762;SDS011;6445;52.490;13.378;2023-10-19T03:03:50;23.90;;;14.60;;
12762;SDS011;6445;52.490;13.378;2023-10-19T03:06:22;21.73;;;14.25;;
12762;SDS011;6445;52.490;13.378;2023-10-19T03:08:48;23.95;;;14.77;;
12762;SDS011;6445;52.490;13.378;2023-10-19T03:11:20;21.88;;;14.82;;
12762;SDS011;6445;52.490;13.378;2023-10-19T03:13:45;24.08;;;14.98;;
12762;SDS011;6445;52.490;13.378;2023-10-19T03:16:15;20.52;;;14.73;;
12762;SDS011;6445;52.490;13.378;2023-10-19T03:18:40;21.98;;;15.18;;
12762;SDS011;6445;52.490;13.378;2023-10-19T03:21:05;22.23;;;14.50;;
12762;SDS011;6445;52.490;13.378;2023-10-19T03:23:31;20.98;;;14.63;;
12762;SDS011;6445;52.490;13.378;2023-10-19T03:25:59;24.13;;;15.80;;
12762;SDS011;6445;52.490;13.378;2023-10-19T03:28:47;21.55;;;15.00;;
12762;SDS011;6445;52.490;13.378;2023-10-19T03:31:12;23.23;;;14.82;;
12762;SDS011;6445;52.490;13.378;2023-10-19T03:33:44;26.60;;;14.65;;
12762;SDS011;6445;52.490;13.378;2023-10-19T03:36:13;22.42;;;14.63;;
12762;SDS011;6445;52.490;13.378;2023-10-19T03:38:39;21.25;;;14.88;;
12762;SDS011;6445;52.490;13.378;2023-10-19T03:41:05;24.17;;;14.85;;
12762;SDS011;6445;52.490;13.378;2023-10-19T03:43:36;24.00;;;15.13;;
12762;SDS011;6445;52.490;13.378;2023-10-19T03:46:05;23.98;;;14.90;;
12762;SDS011;6445;52.490;13.378;2023-10-19T03:48:47;24.70;;;15.13;;
12762;SDS011;6445;52.490;13.378;2023-10-19T03:51:12;23.45;;;14.98;;
12762;SDS011;6445;52.490;13.378;2023-10-19T03:53:38;27.65;;;15.93;;
12762;SDS011;6445;52.490;13.378;2023-10-19T03:56:08;23.55;;;15.63;;
12762;SDS011;6445;52.490;13.378;2023-10-19T03:58:36;24.70;;;15.63;;
12762;SDS011;6445;52.490;13.378;2023-10-19T04:01:03;22.73;;;15.60;;
12762;SDS011;6445;52.490;13.378;2023-10-19T04:03:30;27.63;;;16.35;;
12762;SDS011;6445;52.490;13.378;2023-10-19T04:05:55;23.70;;;15.43;;
12762;SDS011;6445;52.490;13.378;2023-10-19T04:08:21;22.52;;;15.38;;
12762;SDS011;6445;52.490;13.378;2023-10-19T04:10:47;23.63;;;15.80;;
12762;SDS011;6445;52.490;13.378;2023-10-19T04:13:33;25.10;;;15.95;;
12762;SDS011;6445;52.490;13.378;2023-10-19T04:15:59;24.88;;;16.05;;
12762;SDS011;6445;52.490;13.378;2023-10-19T04:18:24;25.70;;;16.70;;
12762;SDS011;6445;52.490;13.378;2023-10-19T04:20:50;25.15;;;14.85;;
12762;SDS011;6445;52.490;13.378;2023-10-19T04:23:16;27.30;;;16.95;;
12762;SDS011;6445;52.490;13.378;2023-10-19T04:25:41;22.98;;;15.38;;
12762;SDS011;6445;52.490;13.378;2023-10-19T04:28:07;24.65;;;16.40;;
12762;SDS011;6445;52.490;13.378;2023-10-19T04:30:32;23.10;;;16.13;;
12762;SDS011;6445;52.490;13.378;2023-10-19T04:32:58;24.52;;;15.98;;
12762;SDS011;6445;52.490;13.378;2023-10-19T04:35:26;27.73;;;16.88;;
12762;SDS011;6445;52.490;13.378;2023-10-19T04:37:57;26.77;;;16.77;;
12762;SDS011;6445;52.490;13.378;2023-10-19T04:40:22;25.35;;;16.55;;
12762;SDS011;6445;52.490;13.378;2023-10-19T04:42:50;25.65;;;17.00;;
12762;SDS011;6445;52.490;13.378;2023-10-19T04:45:16;28.40;;;17.27;;
12762;SDS011;6445;52.490;13.378;2023-10-19T04:47:41;21.98;;;15.77;;
12762;SDS011;6445;52.490;13.378;2023-10-19T04:50:06;24.80;;;16.38;;
12762;SDS011;6445;52.490;13.378;2023-10-19T04:52:33;24.02;;;16.65;;
12762;SDS011;6445;52.490;13.378;2023-10-19T04:54:59;28.35;;;17.67;;
12762;SDS011;6445;52.490;13.378;2023-10-19T04:57:24;28.75;;;17.10;;
12762;SDS011;6445;52.490;13.378;2023-10-19T04:59:51;29.35;;;18.23;;
12762;SDS011;6445;52.490;13.378;2023-10-19T05:02:16;29.35;;;17.58;;
12762;SDS011;6445;52.490;13.378;2023-10-19T05:04:42;25.92;;;17.15;;
12762;SDS011;6445;52.490;13.378;2023-10-19T05:07:08;30.65;;;17.75;;
12762;SDS011;6445;52.490;13.378;2023-10-19T05:09:37;27.30;;;16.55;;
12762;SDS011;6445;52.490;13.378;2023-10-19T05:12:04;27.40;;;17.23;;
12762;SDS011;6445;52.490;13.378;2023-10-19T05:14:33;24.10;;;16.70;;
12762;SDS011;6445;52.490;13.378;2023-10-19T05:17:00;23.15;;;16.27;;
12762;SDS011;6445;52.490;13.378;2023-10-19T05:19:29;33.78;;;17.02;;
12762;SDS011;6445;52.490;13.378;2023-10-19T05:21:55;32.45;;;17.90;;
12762;SDS011;6445;52.490;13.378;2023-10-19T05:24:21;29.48;;;17.80;;
12762;SDS011;6445;52.490;13.378;2023-10-19T05:26:46;25.60;;;17.52;;
12762;SDS011;6445;52.490;13.378;2023-10-19T05:29:12;26.33;;;17.52;;
12762;SDS011;6445;52.490;13.378;2023-10-19T05:31:38;27.23;;;17.58;;
12762;SDS011;6445;52.490;13.378;2023-10-19T05:34:03;38.47;;;18.10;;
12762;SDS011;6445;52.490;13.378;2023-10-19T05:36:29;69.95;;;21.40;;
12762;SDS011;6445;52.490;13.378;2023-10-19T05:38:54;29.48;;;18.30;;
12762;SDS011;6445;52.490;13.378;2023-10-19T05:41:20;29.20;;;18.17;;
12762;SDS011;6445;52.490;13.378;2023-10-19T05:43:46;30.42;;;19.23;;
12762;SDS011;6445;52.490;13.378;2023-10-19T05:46:12;31.27;;;18.92;;
12762;SDS011;6445;52.490;13.378;2023-10-19T05:48:38;27.30;;;17.77;;
12762;SDS011;6445;52.490;13.378;2023-10-19T05:51:04;30.70;;;19.20;;
12762;SDS011;6445;52.490;13.378;2023-10-19T05:53:29;30.88;;;19.38;;
12762;SDS011;6445;52.490;13.378;2023-10-19T05:55:55;29.58;;;18.52;;
12762;SDS011;6445;52.490;13.378;2023-10-19T05:58:20;31.15;;;19.27;;
12762;SDS011;6445;52.490;13.378;2023-10-19T06:00:45;30.00;;;19.95;;
12762;SDS011;6445;52.490;13.378;2023-10-19T06:03:11;28.40;;;19.30;;
12762;SDS011;6445;52.490;13.378;2023-10-19T06:05:36;31.63;;;20.13;;
12762;SDS011;6445;52.490;13.378;2023-10-19T06:08:01;30.30;;;20.55;;
12762;SDS011;6445;52.490;13.378;2023-10-19T06:10:27;29.55;;;19.60;;
12762;SDS011;6445;52.490;13.378;2023-10-19T06:12:53;32.38;;;19.95;;
12762;SDS011;6445;52.490;13.378;2023-10-19T06:15:19;33.33;;;21.58;;
12762;SDS011;6445;52.490;13.378;2023-10-19T06:17:47;33.42;;;20.92;;
12762;SDS011;6445;52.490;13.378;2023-10-19T06:20:13;31.85;;;19.67;;
12762;SDS011;6445;52.490;13.378;2023-10-19T06:22:47;37.42;;;20.90;;
12762;SDS011;6445;52.490;13.378;2023-10-19T06:25:24;36.72;;;21.38;;
12762;SDS011;6445;52.490;13.378;2023-10-19T06:27:50;38.55;;;21.15;;
12762;SDS011;6445;52.490;13.378;2023-10-19T06:30:17;32.63;;;20.20;;
12762;SDS011;6445;52.490;13.378;2023-10-19T06:32:47;32.75;;;19.67;;
12762;SDS011;6445;52.490;13.378;2023-10-19T06:35:15;36.80;;;22.45;;
12762;SDS011;6445;52.490;13.378;2023-10-19T06:37:41;31.90;;;21.23;;
12762;SDS011;6445;52.490;13.378;2023-10-19T06:40:06;35.40;;;21.60;;
12762;SDS011;6445;52.490;13.378;2023-10-19T06:42:32;34.35;;;20.95;;
12762;SDS011;6445;52.490;13.378;2023-10-19T06:44:57;34.22;;;21.27;;
12762;SDS011;6445;52.490;13.378;2023-10-19T06:47:22;33.80;;;22.20;;
12762;SDS011;6445;52.490;13.378;2023-10-19T06:49:48;34.78;;;22.85;;
12762;SDS011;6445;52.490;13.378;2023-10-19T06:52:13;33.55;;;21.63;;
12762;SDS011;6445;52.490;13.378;2023-10-19T06:54:38;32.92;;;21.50;;
12762;SDS011;6445;52.490;13.378;2023-10-19T06:57:04;35.20;;;22.27;;
12762;SDS011;6445;52.490;13.378;2023-10-19T06:59:29;35.17;;;21.65;;
12762;SDS011;6445;52.490;13.378;2023-10-19T07:01:54;34.40;;;21.40;;
12762;SDS011;6445;52.490;13.378;2023-10-19T07:04:20;33.53;;;20.75;;
12762;SDS011;6445;52.490;13.378;2023-10-19T07:06:45;34.95;;;21.58;;
12762;SDS011;6445;52.490;13.378;2023-10-19T07:09:12;31.02;;;20.38;;
12762;SDS011;6445;52.490;13.378;2023-10-19T07:11:37;35.63;;;21.58;;
12762;SDS011;6445;52.490;13.378;2023-10-19T07:14:03;32.45;;;21.13;;
12762;SDS011;6445;52.490;13.378;2023-10-19T07:16:31;34.05;;;21.17;;
12762;SDS011;6445;52.490;13.378;2023-10-19T07:18:56;34.22;;;21.35;;
12762;SDS011;6445;52.490;13.378;2023-10-19T07:21:24;31.17;;;20.88;;
12762;SDS011;6445;52.490;13.378;2023-10-19T07:23:49;30.80;;;21.13;;
12762;SDS011;6445;52.490;13.378;2023-10-19T07:26:18;32.10;;;21.13;;
12762;SDS011;6445;52.490;13.378;2023-10-19T07:28:44;35.42;;;20.75;;
12762;SDS011;6445;52.490;13.378;2023-10-19T07:31:09;33.67;;;20.65;;
12762;SDS011;6445;52.490;13.378;2023-10-19T07:33:40;31.98;;;19.63;;
12762;SDS011;6445;52.490;13.378;2023-10-19T07:36:13;36.00;;;20.00;;
12762;SDS011;6445;52.490;13.378;2023-10-19T07:38:43;33.00;;;20.13;;
12762;SDS011;6445;52.490;13.378;2023-10-19T07:41:10;42.78;;;24.77;;
12762;SDS011;6445;52.490;13.378;2023-10-19T07:43:36;46.70;;;27.10;;
12762;SDS011;6445;52.490;13.378;2023-10-19T07:46:01;30.10;;;19.30;;
12762;SDS011;6445;52.490;13.378;2023-10-19T07:48:27;34.30;;;20.00;;
12762;SDS011;6445;52.490;13.378;2023-10-19T07:50:52;31.90;;;19.73;;
12762;SDS011;6445;52.490;13.378;2023-10-19T07:53:18;30.30;;;20.30;;
12762;SDS011;6445;52.490;13.378;2023-10-19T07:55:43;29.70;;;18.75;;
12762;SDS011;6445;52.490;13.378;2023-10-19T07:58:08;29.08;;;19.08;;
12762;SDS011;6445;52.490;13.378;2023-10-19T08:00:35;29.90;;;18.77;;
12762;SDS011;6445;52.490;13.378;2023-10-19T08:03:00;31.88;;;20.15;;
12762;SDS011;6445;52.490;13.378;2023-10-19T08:05:29;27.35;;;19.20;;
12762;SDS011;6445;52.490;13.378;2023-10-19T08:07:55;31.02;;;19.10;;
12762;SDS011;6445;52.490;13.378;2023-10-19T08:10:22;33.55;;;19.77;;
12762;SDS011;6445;52.490;13.378;2023-10-19T08:12:48;30.30;;;19.13;;
12762;SDS011;6445;52.490;13.378;2023-10-19T08:15:14;27.58;;;18.17;;
12762;SDS011;6445;52.490;13.378;2023-10-19T08:17:41;29.83;;;19.38;;
12762;SDS011;6445;52.490;13.378;2023-10-19T08:20:08;30.60;;;19.08;;
12762;SDS011;6445;52.490;13.378;2023-10-19T08:22:35;30.35;;;19.20;;
12762;SDS011;6445;52.490;13.378;2023-10-19T08:25:04;28.85;;;19.63;;
12762;SDS011;6445;52.490;13.378;2023-10-19T08:27:36;27.77;;;17.80;;
12762;SDS011;6445;52.490;13.378;2023-10-19T08:30:02;31.98;;;19.25;;
12762;SDS011;6445;52.490;13.378;2023-10-19T08:32:28;31.83;;;18.45;;
12762;SDS011;6445;52.490;13.378;2023-10-19T08:34:53;27.05;;;17.63;;
12762;SDS011;6445;52.490;13.378;2023-10-19T08:37:19;27.70;;;18.25;;
12762;SDS011;6445;52.490;13.378;2023-10-19T08:39:44;27.55;;;17.85;;
12762;SDS011;6445;52.490;13.378;2023-10-19T08:42:09;27.00;;;18.08;;
12762;SDS011;6445;52.490;13.378;2023-10-19T08:44:35;36.08;;;18.30;;
12762;SDS011;6445;52.490;13.378;2023-10-19T08:47:01;28.55;;;17.83;;
12762;SDS011;6445;52.490;13.378;2023-10-19T08:49:26;29.40;;;17.70;;
12762;SDS011;6445;52.490;13.378;2023-10-19T08:51:51;26.25;;;18.25;;
12762;SDS011;6445;52.490;13.378;2023-10-19T08:54:19;28.42;;;18.90;;
12762;SDS011;6445;52.490;13.378;2023-10-19T08:56:44;31.73;;;19.05;;
12762;SDS011;6445;52.490;13.378;2023-10-19T08:59:10;29.50;;;18.55;;
12762;SDS011;6445;52.490;13.378;2023-10-19T09:01:36;24.02;;;16.65;;
12762;SDS011;6445;52.490;13.378;2023-10-19T09:04:02;30.05;;;18.42;;
12762;SDS011;6445;52.490;13.378;2023-10-19T09:06:30;27.75;;;17.77;;
12762;SDS011;6445;52.490;13.378;2023-10-19T09:09:03;26.98;;;17.45;;
12762;SDS011;6445;52.490;13.378;2023-10-19T09:11:29;27.67;;;17.88;;
12762;SDS011;6445;52.490;13.378;2023-10-19T09:13:56;27.20;;;17.58;;
12762;SDS011;6445;52.490;13.378;2023-10-19T09:16:22;25.50;;;17.42;;
12762;SDS011;6445;52.490;13.378;2023-10-19T09:18:48;26.45;;;17.15;;
12762;SDS011;6445;52.490;13.378;2023-10-19T09:21:16;27.67;;;18.30;;
12762;SDS011;6445;52.490;13.378;2023-10-19T09:23:49;28.42;;;18.25;;
12762;SDS011;6445;52.490;13.378;2023-10-19T09:26:15;25.35;;;17.75;;
12762;SDS011;6445;52.490;13.378;2023-10-19T09:28:41;27.65;;;16.83;;
12762;SDS011;6445;52.490;13.378;2023-10-19T09:31:07;24.73;;;17.63;;
12762;SDS011;6445;52.490;13.378;2023-10-19T09:33:34;28.92;;;17.30;;
12762;SDS011;6445;52.490;13.378;2023-10-19T09:36:01;28.70;;;18.45;;
12762;SDS011;6445;52.490;13.378;2023-10-19T09:38:27;24.60;;;17.02;;
12762;SDS011;6445;52.490;13.378;2023-10-19T09:40:53;26.08;;;17.60;;
12762;SDS011;6445;52.490;13.378;2023-10-19T09:46:07;24.20;;;16.38;;
12762;SDS011;6445;52.490;13.378;2023-10-19T09:48:38;27.88;;;18.17;;
12762;SDS011;6445;52.490;13.378;2023-10-19T09:51:06;28.35;;;18.60;;
12762;SDS011;6445;52.490;13.378;2023-10-19T09:53:33;25.08;;;17.48;;
12762;SDS011;6445;52.490;13.378;2023-10-19T09:56:00;28.35;;;17.65;;
12762;SDS011;6445;52.490;13.378;2023-10-19T09:58:37;27.35;;;17.45;;
12762;SDS011;6445;52.490;13.378;2023-10-19T10:01:09;27.55;;;17.30;;
12762;SDS011;6445;52.490;13.378;2023-10-19T10:03:48;28.17;;;16.92;;
12762;SDS011;6445;52.490;13.378;2023-10-19T10:06:17;28.08;;;17.83;;
12762;SDS011;6445;52.490;13.378;2023-10-19T10:08:53;25.83;;;17.38;;
12762;SDS011;6445;52.490;13.378;2023-10-19T10:11:19;27.98;;;16.67;;
12762;SDS011;6445;52.490;13.378;2023-10-19T10:13:49;28.10;;;18.85;;
12762;SDS011;6445;52.490;13.378;2023-10-19T10:16:16;27.02;;;17.88;;
12762;SDS011;6445;52.490;13.378;2023-10-19T10:18:43;25.73;;;18.17;;
12762;SDS011;6445;52.490;13.378;2023-10-19T10:24:00;26.92;;;18.02;;
12762;SDS011;6445;52.490;13.378;2023-10-19T10:26:29;27.25;;;18.40;;
12762;SDS011;6445;52.490;13.378;2023-10-19T10:31:34;30.77;;;19.27;;
12762;SDS011;6445;52.490;13.378;2023-10-19T10:34:05;29.38;;;20.33;;
12762;SDS011;6445;52.490;13.378;2023-10-19T10:36:56;31.02;;;20.23;;
12762;SDS011;6445;52.490;13.378;2023-10-19T10:39:22;31.75;;;21.70;;
12762;SDS011;6445;52.490;13.378;2023-10-19T10:41:54;31.40;;;20.73;;
12762;SDS011;6445;52.490;13.378;2023-10-19T10:44:20;37.80;;;21.45;;
12762;SDS011;6445;52.490;13.378;2023-10-19T10:46:45;34.58;;;21.90;;
12762;SDS011;6445;52.490;13.378;2023-10-19T10:49:10;39.35;;;22.92;;
12762;SDS011;6445;52.490;13.378;2023-10-19T10:51:37;36.25;;;22.23;;
12762;SDS011;6445;52.490;13.378;2023-10-19T10:54:05;36.38;;;22.48;;
12762;SDS011;6445;52.490;13.378;2023-10-19T10:56:31;33.72;;;21.85;;
12762;SDS011;6445;52.490;13.378;2023-10-19T10:58:57;32.28;;;22.13;;
12762;SDS011;6445;52.490;13.378;2023-10-19T11:01:31;33.65;;;23.17;;
12762;SDS011;6445;52.490;13.378;2023-10-19T11:04:06;36.42;;;22.73;;
12762;SDS011;6445;52.490;13.378;2023-10-19T11:06:33;37.17;;;23.15;;
12762;SDS011;6445;52.490;13.378;2023-10-19T11:09:10;36.63;;;23.00;;
12762;SDS011;6445;52.490;13.378;2023-10-19T11:11:39;37.10;;;24.25;;
12762;SDS011;6445;52.490;13.378;2023-10-19T11:14:09;35.15;;;24.25;;
12762;SDS011;6445;52.490;13.378;2023-10-19T11:16:36;38.30;;;25.45;;
12762;SDS011;6445;52.490;13.378;2023-10-19T11:19:02;40.75;;;24.15;;
12762;SDS011;6445;52.490;13.378;2023-10-19T11:21:27;34.85;;;23.35;;
12762;SDS011;6445;52.490;13.378;2023-10-19T11:23:53;35.40;;;23.38;;
12762;SDS011;6445;52.490;13.378;2023-10-19T11:26:20;38.20;;;24.90;;
12762;SDS011;6445;52.490;13.378;2023-10-19T11:28:46;33.67;;;24.05;;
12762;SDS011;6445;52.490;13.378;2023-10-19T11:31:22;37.85;;;26.33;;
12762;SDS011;6445;52.490;13.378;2023-10-19T11:33:48;38.78;;;25.10;;
12762;SDS011;6445;52.490;13.378;2023-10-19T11:36:14;39.50;;;26.17;;
12762;SDS011;6445;52.490;13.378;2023-10-19T11:38:47;38.80;;;24.73;;
12762;SDS011;6445;52.490;13.378;2023-10-19T11:41:13;42.53;;;25.90;;
12762;SDS011;6445;52.490;13.378;2023-10-19T11:43:40;44.70;;;25.52;;
12762;SDS011;6445;52.490;13.378;2023-10-19T11:46:07;36.33;;;25.17;;
12762;SDS011;6445;52.490;13.378;2023-10-19T11:48:33;46.00;;;26.13;;
12762;SDS011;6445;52.490;13.378;2023-10-19T11:51:00;38.42;;;25.42;;
12762;SDS011;6445;52.490;13.378;2023-10-19T11:53:29;43.13;;;27.48;;
12762;SDS011;6445;52.490;13.378;2023-10-19T11:55:58;39.20;;;26.58;;
12762;SDS011;6445;52.490;13.378;2023-10-19T11:58:24;41.03;;;26.77;;
12762;SDS011;6445;52.490;13.378;2023-10-19T12:00:49;41.13;;;26.70;;
12762;SDS011;6445;52.490;13.378;2023-10-19T12:03:16;46.95;;;32.35;;
12762;SDS011;6445;52.490;13.378;2023-10-19T12:05:43;51.83;;;35.35;;
12762;SDS011;6445;52.490;13.378;2023-10-19T12:08:08;41.33;;;27.35;;
12762;SDS011;6445;52.490;13.378;2023-10-19T12:10:34;47.03;;;28.15;;
12762;SDS011;6445;52.490;13.378;2023-10-19T12:13:03;46.05;;;28.38;;
12762;SDS011;6445;52.490;13.378;2023-10-19T12:15:29;45.83;;;28.58;;
12762;SDS011;6445;52.490;13.378;2023-10-19T12:17:55;46.72;;;29.25;;
12762;SDS011;6445;52.490;13.378;2023-10-19T12:20:20;48.10;;;29.40;;
12762;SDS011;6445;52.490;13.378;2023-10-19T12:22:49;43.53;;;28.67;;
12762;SDS011;6445;52.490;13.378;2023-10-19T12:25:17;46.53;;;28.55;;
12762;SDS011;6445;52.490;13.378;2023-10-19T12:27:42;49.15;;;29.92;;
12762;SDS011;6445;52.490;13.378;2023-10-19T12:30:08;44.83;;;28.25;;
12762;SDS011;6445;52.490;13.378;2023-10-19T12:32:47;47.63;;;28.60;;
12762;SDS011;6445;52.490;13.378;2023-10-19T12:35:14;46.05;;;29.35;;
12762;SDS011;6445;52.490;13.378;2023-10-19T12:37:40;40.70;;;27.90;;
12762;SDS011;6445;52.490;13.378;2023-10-19T12:40:11;47.97;;;28.67;;
12762;SDS011;6445;52.490;13.378;2023-10-19T12:42:52;45.40;;;29.40;;
12762;SDS011;6445;52.490;13.378;2023-10-19T12:45:20;47.00;;;29.77;;
12762;SDS011;6445;52.490;13.378;2023-10-19T12:47:46;46.58;;;30.20;;
12762;SDS011;6445;52.490;13.378;2023-10-19T12:50:11;45.42;;;30.23;;
12762;SDS011;6445;52.490;13.378;2023-10-19T12:52:37;46.03;;;29.73;;
12762;SDS011;6445;52.490;13.378;2023-10-19T12:55:05;46.40;;;30.58;;
12762;SDS011;6445;52.490;13.378;2023-10-19T12:57:31;53.72;;;32.33;;
12762;SDS011;6445;52.490;13.378;2023-10-19T12:59:57;46.05;;;30.83;;
12762;SDS011;6445;52.490;13.378;2023-10-19T13:02:22;47.20;;;30.58;;
12762;SDS011;6445;52.490;13.378;2023-10-19T13:04:48;46.78;;;31.52;;
12762;SDS011;6445;52.490;13.378;2023-10-19T13:07:14;48.30;;;31.38;;
12762;SDS011;6445;52.490;13.378;2023-10-19T13:09:39;46.47;;;31.25;;
12762;SDS011;6445;52.490;13.378;2023-10-19T13:12:05;46.28;;;31.80;;
12762;SDS011;6445;52.490;13.378;2023-10-19T13:14:32;49.38;;;31.67;;
12762;SDS011;6445;52.490;13.378;2023-10-19T13:16:59;45.15;;;30.67;;
12762;SDS011;6445;52.490;13.378;2023-10-19T13:19:24;47.53;;;32.38;;
12762;SDS011;6445;52.490;13.378;2023-10-19T13:21:50;49.58;;;32.47;;
12762;SDS011;6445;52.490;13.378;2023-10-19T13:24:16;49.00;;;31.48;;
12762;SDS011;6445;52.490;13.378;2023-10-19T13:26:45;50.20;;;32.25;;
12762;SDS011;6445;52.490;13.378;2023-10-19T13:29:11;49.03;;;32.42;;
12762;SDS011;6445;52.490;13.378;2023-10-19T13:31:37;47.42;;;31.40;;
12762;SDS011;6445;52.490;13.378;2023-10-19T13:34:02;48.92;;;31.60;;
12762;SDS011;6445;52.490;13.378;2023-10-19T13:36:29;49.97;;;33.05;;
12762;SDS011;6445;52.490;13.378;2023-10-19T13:38:55;56.83;;;34.40;;
12762;SDS011;6445;52.490;13.378;2023-10-19T13:41:20;55.03;;;32.65;;
12762;SDS011;6445;52.490;13.378;2023-10-19T13:43:45;49.42;;;33.85;;
12762;SDS011;6445;52.490;13.378;2023-10-19T13:46:12;51.97;;;33.05;;
12762;SDS011;6445;52.490;13.378;2023-10-19T13:48:37;53.33;;;34.90;;
12762;SDS011;6445;52.490;13.378;2023-10-19T13:51:04;57.50;;;34.80;;
12762;SDS011;6445;52.490;13.378;2023-10-19T13:53:40;57.22;;;34.40;;
12762;SDS011;6445;52.490;13.378;2023-10-19T13:56:08;53.28;;;33.95;;
12762;SDS011;6445;52.490;13.378;2023-10-19T13:58:34;53.30;;;33.67;;
12762;SDS011;6445;52.490;13.378;2023-10-19T14:01:00;57.25;;;34.30;;
12762;SDS011;6445;52.490;13.378;2023-10-19T14:03:25;57.72;;;34.95;;
12762;SDS011;6445;52.490;13.378;2023-10-19T14:05:50;58.53;;;34.70;;
12762;SDS011;6445;52.490;13.378;2023-10-19T14:08:16;55.03;;;35.78;;
12762;SDS011;6445;52.490;13.378;2023-10-19T14:10:42;53.25;;;35.10;;
12762;SDS011;6445;52.490;13.378;2023-10-19T14:13:08;56.95;;;34.28;;
12762;SDS011;6445;52.490;13.378;2023-10-19T14:15:34;56.83;;;33.83;;
12762;SDS011;6445;52.490;13.378;2023-10-19T14:17:59;50.70;;;32.90;;
12762;SDS011;6445;52.490;13.378;2023-10-19T14:20:25;52.20;;;34.80;;
12762;SDS011;6445;52.490;13.378;2023-10-19T14:22:53;55.05;;;34.80;;
12762;SDS011;6445;52.490;13.378;2023-10-19T14:25:21;53.42;;;35.08;;
12762;SDS011;6445;52.490;13.378;2023-10-19T14:27:48;54.05;;;34.20;;
12762;SDS011;6445;52.490;13.378;2023-10-19T14:30:17;54.13;;;36.22;;
12762;SDS011;6445;52.490;13.378;2023-10-19T14:32:44;58.53;;;36.30;;
12762;SDS011;6445;52.490;13.378;2023-10-19T14:35:10;55.90;;;35.67;;